Time;durP1;ratioP1;P1;durP2;ratioP2;P2;SDS_P1;SDS_P2;PMS_P1;PMS_P2;Temp;Humidity;BMP_temperature;BMP_pressure;BME280_temperature;BME280_humidity;BME280_pressure;Samples;Min_cycle;Max_cycle;Signal;HPM_P1;HPM_P2
2023/04/12 00:00:22;;;;;;;;;;;;;;;6.82;63.93;98240.88;4986280;28;19917;-78
2023/04/12 00:02:52;;;;;;;;;;;;;;;6.81;63.25;98228.66;4986537;28;19984;-79
2023/04/12 00:05:18;;;;;;;;;;;;;;;6.85;63.09;98226.34;4983918;28;19925;-79
2023/04/12 00:07:45;;;;;;;;;;;;;;;6.88;63.81;98222.41;4987326;28;19976;-79
2023/04/12 00:10:11;;;;;;;;;;;;;;;6.39;65.25;98229.22;4983635;28;19929;-78
2023/04/12 00:12:36;;;;;;;;;;;;;;;6.32;65.58;98226.69;4987603;28;19921;-78
2023/04/12 00:15:01;;;;;;;;;;;;;;;6.68;64.25;98217.56;4987489;28;19949;-78
2023/04/12 00:17:26;;;;;;;;;;;;;;;6.75;63.79;98216.34;4988364;28;19974;-78
2023/04/12 00:19:52;;;;;;;;;;;;;;;6.76;63.49;98209.22;4986841;28;19930;-78
2023/04/12 00:22:17;;;;;;;;;;;;;;;6.76;63.45;98203.91;4990678;28;20039;-79
2023/04/12 00:24:42;;;;;;;;;;;;;;;6.69;63.50;98203.25;4969432;28;19969;-79
2023/04/12 00:27:07;;;;;;;;;;;;;;;6.72;63.57;98192.16;4983862;28;19932;-78
2023/04/12 00:29:33;;;;;;;;;;;;;;;6.74;64.13;98190.09;4985638;28;19940;-79
2023/04/12 00:32:02;;;;;;;;;;;;;;;6.73;63.79;98189.28;4987952;28;20028;-78
2023/04/12 00:34:27;;;;;;;;;;;;;;;6.65;64.45;98180.91;4990943;28;20404;-78
2023/04/12 00:36:53;;;;;;;;;;;;;;;6.60;63.66;98176.31;4988010;28;19918;-78
2023/04/12 00:39:18;;;;;;;;;;;;;;;6.60;64.00;98171.03;4989623;28;19921;-79
2023/04/12 00:41:43;;;;;;;;;;;;;;;6.60;64.29;98165.72;4986976;28;19956;-78
2023/04/12 00:44:09;;;;;;;;;;;;;;;6.56;63.94;98161.13;4967398;28;19921;-79
2023/04/12 00:46:34;;;;;;;;;;;;;;;6.55;64.03;98162.19;4985121;28;19921;-78
2023/04/12 00:49:01;;;;;;;;;;;;;;;6.57;64.03;98162.75;4983266;28;19922;-78
2023/04/12 00:51:32;;;;;;;;;;;;;;;6.58;64.72;98157.19;4983433;28;20290;-78
2023/04/12 00:53:57;;;;;;;;;;;;;;;6.59;64.14;98145.56;4990044;28;20366;-78
2023/04/12 00:56:27;;;;;;;;;;;;;;;6.58;64.45;98141.28;4982043;28;19941;-79
2023/04/12 00:58:52;;;;;;;;;;;;;;;6.57;64.29;98138.88;4983117;28;19924;-78
2023/04/12 01:01:18;;;;;;;;;;;;;;;6.62;64.34;98138.94;4983587;28;19926;-78
2023/04/12 01:03:44;;;;;;;;;;;;;;;6.57;63.66;98130.94;4983394;28;19926;-78
2023/04/12 01:06:09;;;;;;;;;;;;;;;6.57;63.95;98137.06;4985989;28;19929;-79
2023/04/12 01:08:46;;;;;;;;;;;;;;;6.54;64.42;98126.09;4980394;28;20004;-79
2023/04/12 01:11:16;;;;;;;;;;;;;;;6.57;64.88;98126.44;4986434;28;19917;-79
2023/04/12 01:13:47;;;;;;;;;;;;;;;6.63;63.79;98122.00;4983820;28;19977;-79
2023/04/12 01:16:39;;;;;;;;;;;;;;;6.62;64.52;98112.44;4988297;28;19917;-78
2023/04/12 01:19:08;;;;;;;;;;;;;;;6.64;64.53;98108.50;4981522;28;20049;-79
2023/04/12 01:21:52;;;;;;;;;;;;;;;6.61;64.86;98116.16;4985108;28;19918;-78
2023/04/12 01:24:37;;;;;;;;;;;;;;;6.63;64.35;98114.06;4985560;28;19921;-78
2023/04/12 01:27:07;;;;;;;;;;;;;;;6.62;64.52;98107.94;4980023;28;19918;-78
2023/04/12 01:29:32;;;;;;;;;;;;;;;6.63;64.61;98103.47;4979814;28;19925;-78
2023/04/12 01:31:59;;;;;;;;;;;;;;;6.69;64.14;98097.19;4985992;28;20285;-78
2023/04/12 01:34:27;;;;;;;;;;;;;;;6.72;64.39;98083.44;4988115;28;19933;-78
2023/04/12 01:36:54;;;;;;;;;;;;;;;6.69;64.54;98083.91;4973771;28;20682;-79
2023/04/12 01:39:19;;;;;;;;;;;;;;;6.70;64.27;98072.28;4985651;28;19922;-78
2023/04/12 01:41:47;;;;;;;;;;;;;;;6.75;63.70;98075.00;4986994;28;19925;-79
2023/04/12 01:44:15;;;;;;;;;;;;;;;6.71;64.01;98064.06;4984162;28;19922;-78
2023/04/12 01:46:42;;;;;;;;;;;;;;;6.74;65.03;98057.50;4984214;28;19922;-78
2023/04/12 01:49:07;;;;;;;;;;;;;;;6.74;63.96;98057.50;4981357;28;19925;-78
2023/04/12 01:51:44;;;;;;;;;;;;;;;6.71;64.26;98060.63;4977113;28;20316;-78
2023/04/12 01:54:12;;;;;;;;;;;;;;;6.73;64.22;98061.97;4987440;28;20016;-79
2023/04/12 01:56:42;;;;;;;;;;;;;;;6.70;64.41;98059.03;4982799;28;19925;-78
2023/04/12 01:59:08;;;;;;;;;;;;;;;6.74;64.76;98058.31;4986558;28;20387;-78
2023/04/12 02:01:33;;;;;;;;;;;;;;;6.78;64.83;98035.56;4984116;28;20389;-78
2023/04/12 02:04:00;;;;;;;;;;;;;;;6.72;65.22;98033.06;4985194;28;19953;-78
2023/04/12 02:06:26;;;;;;;;;;;;;;;6.66;65.18;98032.19;4982348;28;19933;-78
2023/04/12 02:08:59;;;;;;;;;;;;;;;6.68;65.87;98014.16;4985249;28;19956;-79
2023/04/12 02:11:24;;;;;;;;;;;;;;;6.67;64.95;98009.13;4985184;28;19928;-78
2023/04/12 02:13:49;;;;;;;;;;;;;;;6.72;65.52;98006.56;4968679;28;19933;-78
2023/04/12 02:16:15;;;;;;;;;;;;;;;6.76;65.97;98005.00;4986749;28;19922;-79
2023/04/12 02:18:41;;;;;;;;;;;;;;;6.77;64.93;97993.38;4983427;28;19926;-78
2023/04/12 02:21:06;;;;;;;;;;;;;;;6.81;64.71;97989.19;4986336;28;19928;-78
2023/04/12 02:23:31;;;;;;;;;;;;;;;6.73;65.21;97987.72;4984070;28;19930;-78
2023/04/12 02:25:57;;;;;;;;;;;;;;;6.75;65.20;97983.00;4982651;28;20541;-78
2023/04/12 02:28:22;;;;;;;;;;;;;;;6.71;65.26;97983.72;4989190;28;20322;-78
2023/04/12 02:30:47;;;;;;;;;;;;;;;6.76;64.70;97973.19;4981910;28;19932;-79
2023/04/12 02:33:14;;;;;;;;;;;;;;;6.71;65.45;97975.75;4986723;28;19957;-79
2023/04/12 02:35:39;;;;;;;;;;;;;;;6.62;65.46;97970.09;5002682;28;19929;-79
2023/04/12 02:38:07;;;;;;;;;;;;;;;6.63;65.68;97968.25;4988961;28;19917;-79
2023/04/12 02:40:33;;;;;;;;;;;;;;;6.62;65.31;97967.44;4991303;28;19989;-78
2023/04/12 02:42:58;;;;;;;;;;;;;;;6.64;65.77;97977.81;4987355;28;20469;-79
2023/04/12 02:45:24;;;;;;;;;;;;;;;6.66;65.53;97975.72;4988885;28;20021;-79
2023/04/12 02:47:49;;;;;;;;;;;;;;;6.63;65.41;97962.94;4971961;28;20304;-79
2023/04/12 02:50:14;;;;;;;;;;;;;;;6.62;64.65;97950.72;4973322;28;19930;-79
2023/04/12 02:52:40;;;;;;;;;;;;;;;6.71;65.38;97946.59;4984118;28;19984;-78
2023/04/12 02:55:05;;;;;;;;;;;;;;;6.74;64.88;97941.63;4984666;28;19929;-78
2023/04/12 02:57:30;;;;;;;;;;;;;;;6.74;65.04;97940.81;4984371;28;20395;-79
2023/04/12 02:59:56;;;;;;;;;;;;;;;6.77;64.63;97940.34;4983405;28;19921;-79
2023/04/12 03:02:21;;;;;;;;;;;;;;;6.73;64.49;97940.00;4964730;28;19922;-79
2023/04/12 03:04:49;;;;;;;;;;;;;;;6.78;64.72;97915.41;4982309;28;19921;-79
2023/04/12 03:07:18;;;;;;;;;;;;;;;6.75;64.29;97913.22;4986534;28;19996;-78
2023/04/12 03:09:44;;;;;;;;;;;;;;;6.75;64.50;97913.22;4977642;28;19926;-79
2023/04/12 03:12:09;;;;;;;;;;;;;;;6.67;64.80;97916.31;4978660;28;19922;-79
2023/04/12 03:14:34;;;;;;;;;;;;;;;6.62;64.82;97926.84;4966386;28;19926;-79
2023/04/12 03:17:00;;;;;;;;;;;;;;;6.66;64.73;97925.34;4986036;28;19929;-78
2023/04/12 03:19:25;;;;;;;;;;;;;;;6.70;65.48;97921.94;4972483;28;19926;-79
2023/04/12 03:21:50;;;;;;;;;;;;;;;6.73;65.52;97918.78;4969798;28;19925;-79
2023/04/12 03:24:16;;;;;;;;;;;;;;;6.80;64.55;97911.47;4987728;28;19925;-79
2023/04/12 03:26:42;;;;;;;;;;;;;;;6.79;64.66;97911.72;4987076;28;20556;-78
2023/04/12 03:29:08;;;;;;;;;;;;;;;6.79;64.81;97903.75;4987824;28;19918;-79
2023/04/12 03:31:33;;;;;;;;;;;;;;;6.70;64.68;97908.69;4988954;28;20392;-78
2023/04/12 03:33:59;;;;;;;;;;;;;;;6.72;64.71;97903.13;4986911;28;19926;-79
2023/04/12 03:36:26;;;;;;;;;;;;;;;6.77;64.96;97898.69;4985449;28;19965;-79
2023/04/12 03:38:51;;;;;;;;;;;;;;;6.61;65.80;97901.41;4967916;28;19926;-78
2023/04/12 03:41:16;;;;;;;;;;;;;;;6.83;65.48;97888.94;4986779;28;19928;-79
2023/04/12 03:43:41;;;;;;;;;;;;;;;6.43;65.44;97877.84;4967281;28;19930;-78
2023/04/12 03:46:07;;;;;;;;;;;;;;;6.68;65.87;97883.47;4986231;28;19929;-79
2023/04/12 03:48:32;;;;;;;;;;;;;;;6.67;65.10;97879.19;4994104;28;19956;-78
2023/04/12 03:50:58;;;;;;;;;;;;;;;6.51;65.34;97874.78;4986042;28;19937;-78
2023/04/12 03:53:24;;;;;;;;;;;;;;;6.62;65.71;97871.19;4967975;28;19925;-78
2023/04/12 03:55:49;;;;;;;;;;;;;;;6.65;65.73;97873.34;4985661;28;19941;-78
2023/04/12 03:58:15;;;;;;;;;;;;;;;6.72;65.56;97879.28;4973052;28;19930;-78
2023/04/12 04:00:41;;;;;;;;;;;;;;;6.79;64.92;97877.25;4985378;28;20017;-78
2023/04/12 04:03:07;;;;;;;;;;;;;;;6.75;64.86;97868.97;4985827;28;19922;-78
2023/04/12 04:05:32;;;;;;;;;;;;;;;6.69;65.11;97862.00;4990298;28;19918;-78
2023/04/12 04:08:01;;;;;;;;;;;;;;;6.81;64.97;97865.31;4985665;28;19925;-78
2023/04/12 04:10:26;;;;;;;;;;;;;;;6.80;65.82;97860.25;4988188;28;19925;-78
2023/04/12 04:12:52;;;;;;;;;;;;;;;6.71;66.29;97851.94;4983778;28;19918;-78
2023/04/12 04:15:17;;;;;;;;;;;;;;;6.81;65.82;97851.28;4984405;28;20427;-78
2023/04/12 04:17:43;;;;;;;;;;;;;;;6.88;65.80;97861.69;4965844;28;20030;-78
2023/04/12 04:20:11;;;;;;;;;;;;;;;6.81;65.05;97851.28;4983616;28;20783;-78
2023/04/12 04:22:37;;;;;;;;;;;;;;;6.86;64.98;97853.19;4986624;28;20441;-78
2023/04/12 04:25:02;;;;;;;;;;;;;;;6.82;65.26;97850.22;4991443;28;19921;-78
2023/04/12 04:27:29;;;;;;;;;;;;;;;6.64;65.79;97846.03;4969936;28;20433;-78
2023/04/12 04:29:57;;;;;;;;;;;;;;;6.82;65.18;97836.94;4971968;28;20040;-78
2023/04/12 04:32:22;;;;;;;;;;;;;;;6.40;65.94;97835.94;4972050;28;19922;-78
2023/04/12 04:34:47;;;;;;;;;;;;;;;6.31;67.37;97830.25;4988623;28;19935;-78
2023/04/12 04:37:12;;;;;;;;;;;;;;;6.12;67.61;97821.00;4971418;28;20274;-78
2023/04/12 04:39:37;;;;;;;;;;;;;;;6.03;67.89;97822.44;4966824;28;20395;-79
2023/04/12 04:42:05;;;;;;;;;;;;;;;6.29;67.27;97818.31;4984570;28;20567;-78
2023/04/12 04:44:30;;;;;;;;;;;;;;;6.18;67.43;97814.69;4983783;28;19932;-78
2023/04/12 04:46:58;;;;;;;;;;;;;;;6.48;66.87;97803.69;4984709;28;19947;-78
2023/04/12 04:49:23;;;;;;;;;;;;;;;6.44;67.00;97814.00;4971123;28;19926;-78
2023/04/12 04:51:49;;;;;;;;;;;;;;;6.01;67.35;97806.00;4993798;28;19932;-78
2023/04/12 04:54:15;;;;;;;;;;;;;;;6.34;67.42;97803.25;4982766;28;19969;-78
2023/04/12 04:56:40;;;;;;;;;;;;;;;6.25;67.53;97795.97;4968016;28;19925;-78
2023/04/12 04:59:06;;;;;;;;;;;;;;;6.48;66.98;97791.25;4970853;28;20037;-78
2023/04/12 05:01:34;;;;;;;;;;;;;;;6.52;67.06;97796.84;5008357;28;19996;-79
2023/04/12 05:04:00;;;;;;;;;;;;;;;6.26;67.46;97787.81;4990652;28;20440;-78
2023/04/12 05:06:26;;;;;;;;;;;;;;;6.43;66.99;97785.06;4992650;28;20004;-79
2023/04/12 05:08:51;;;;;;;;;;;;;;;6.22;67.86;97785.88;4989739;28;20385;-78
2023/04/12 05:11:17;;;;;;;;;;;;;;;6.48;67.39;97782.50;4990652;28;20005;-78
2023/04/12 05:13:42;;;;;;;;;;;;;;;6.41;68.07;97782.69;4989033;28;19932;-79
2023/04/12 05:16:07;;;;;;;;;;;;;;;6.21;67.97;97786.91;4989413;28;20306;-79
2023/04/12 05:18:33;;;;;;;;;;;;;;;6.43;67.20;97775.28;4990692;28;20382;-79
2023/04/12 05:21:02;;;;;;;;;;;;;;;6.58;66.72;97772.00;4986389;28;19968;-79
2023/04/12 05:23:28;;;;;;;;;;;;;;;6.76;66.44;97767.16;4986147;28;20278;-79
2023/04/12 05:25:53;;;;;;;;;;;;;;;6.70;66.16;97759.41;4991336;28;19918;-79
2023/04/12 05:28:18;;;;;;;;;;;;;;;6.64;66.63;97749.81;4988394;28;20388;-78
2023/04/12 05:30:44;;;;;;;;;;;;;;;6.65;66.82;97735.47;4971774;28;19921;-78
2023/04/12 05:33:09;;;;;;;;;;;;;;;6.63;67.34;97726.97;4989608;28;19957;-78
2023/04/12 05:35:35;;;;;;;;;;;;;;;6.51;67.48;97721.03;5007361;28;20273;-78
2023/04/12 05:38:00;;;;;;;;;;;;;;;6.53;67.30;97721.59;4965127;28;19922;-79
2023/04/12 05:40:25;;;;;;;;;;;;;;;6.56;67.81;97729.03;4991217;28;19926;-79
2023/04/12 05:42:51;;;;;;;;;;;;;;;6.60;66.77;97727.47;4992191;28;20456;-78
2023/04/12 05:45:16;;;;;;;;;;;;;;;6.37;67.74;97719.81;4988909;28;19976;-78
2023/04/12 05:47:41;;;;;;;;;;;;;;;6.40;67.53;97712.16;4970150;28;19922;-79
2023/04/12 05:50:06;;;;;;;;;;;;;;;6.36;68.67;97716.38;4991891;28;20008;-78
2023/04/12 05:52:32;;;;;;;;;;;;;;;6.50;67.69;97714.13;4989533;28;19961;-78
2023/04/12 05:54:57;;;;;;;;;;;;;;;6.19;70.05;97701.59;4992362;28;19925;-78
2023/04/12 05:57:22;;;;;;;;;;;;;;;6.35;69.16;97701.53;4994007;28;19922;-79
2023/04/12 05:59:47;;;;;;;;;;;;;;;6.59;68.58;97694.88;4995978;28;19957;-79
2023/04/12 06:02:13;;;;;;;;;;;;;;;6.65;67.89;97685.91;4971178;28;19953;-78
2023/04/12 06:04:39;;;;;;;;;;;;;;;6.69;68.17;97694.16;4991656;28;20293;-79
2023/04/12 06:07:05;;;;;;;;;;;;;;;6.81;68.87;97679.69;4992821;28;19922;-78
2023/04/12 06:09:30;;;;;;;;;;;;;;;6.85;67.80;97669.38;4993553;28;19945;-79
2023/04/12 06:11:56;;;;;;;;;;;;;;;6.76;69.09;97673.53;4994196;28;19933;-79
2023/04/12 06:14:21;;;;;;;;;;;;;;;7.13;67.93;97670.91;4994253;28;20329;-79
2023/04/12 06:16:46;;;;;;;;;;;;;;;6.98;68.65;97657.53;4990253;28;20305;-78
2023/04/12 06:19:11;;;;;;;;;;;;;;;6.89;69.44;97651.91;4991324;28;20284;-79
2023/04/12 06:21:37;;;;;;;;;;;;;;;6.98;69.34;97650.38;4992472;28;19921;-78
2023/04/12 06:24:02;;;;;;;;;;;;;;;7.17;67.88;97650.75;4989802;28;19950;-78
2023/04/12 06:26:27;;;;;;;;;;;;;;;6.80;71.53;97640.16;4991304;28;19922;-79
2023/04/12 06:28:52;;;;;;;;;;;;;;;7.09;69.30;97637.97;4986547;28;19928;-79
2023/04/12 06:31:18;;;;;;;;;;;;;;;7.16;69.59;97628.75;4985463;28;19957;-78
2023/04/12 06:33:43;;;;;;;;;;;;;;;7.21;69.18;97620.81;4987397;28;19925;-79
2023/04/12 06:36:10;;;;;;;;;;;;;;;7.10;70.04;97624.44;4992255;28;20012;-78
2023/04/12 06:38:35;;;;;;;;;;;;;;;7.32;68.37;97619.00;4971866;28;19918;-78
2023/04/12 06:41:00;;;;;;;;;;;;;;;7.30;68.98;97608.66;4987329;28;19932;-78
2023/04/12 06:43:26;;;;;;;;;;;;;;;7.32;68.88;97605.75;4991010;28;19922;-79
2023/04/12 06:45:51;;;;;;;;;;;;;;;7.56;67.63;97596.28;4985496;28;19926;-78
2023/04/12 06:48:16;;;;;;;;;;;;;;;7.62;67.32;97592.63;4988436;28;19922;-78
2023/04/12 06:50:41;;;;;;;;;;;;;;;7.52;68.63;97588.06;4972317;28;20016;-78
2023/04/12 06:53:06;;;;;;;;;;;;;;;7.65;68.47;97583.31;4988789;28;19937;-79
2023/04/12 06:55:32;;;;;;;;;;;;;;;7.78;68.22;97588.13;4988242;28;19952;-79
2023/04/12 06:57:57;;;;;;;;;;;;;;;7.65;68.81;97586.78;4990873;28;19969;-78
2023/04/12 07:00:22;;;;;;;;;;;;;;;7.87;67.33;97579.41;4990795;28;19929;-79
2023/04/12 07:02:47;;;;;;;;;;;;;;;7.84;67.02;97579.91;4990732;28;19957;-79
2023/04/12 07:05:13;;;;;;;;;;;;;;;7.81;67.54;97574.34;4992952;28;19925;-78
2023/04/12 07:07:38;;;;;;;;;;;;;;;7.63;68.91;97580.94;4986386;28;19930;-78
2023/04/12 07:10:04;;;;;;;;;;;;;;;7.79;69.07;97566.66;4992830;28;20011;-79
2023/04/12 07:12:30;;;;;;;;;;;;;;;7.89;67.77;97569.31;4991350;28;19965;-79
2023/04/12 07:14:55;;;;;;;;;;;;;;;7.97;68.06;97568.81;4990321;28;19922;-78
2023/04/12 07:17:20;;;;;;;;;;;;;;;7.98;67.79;97565.09;4990809;28;20408;-79
2023/04/12 07:19:46;;;;;;;;;;;;;;;7.64;69.42;97571.13;4986816;28;19929;-78
2023/04/12 07:22:11;;;;;;;;;;;;;;;7.92;68.69;97555.53;4988898;28;19928;-79
2023/04/12 07:24:37;;;;;;;;;;;;;;;8.01;67.67;97545.97;4992002;28;20000;-78
2023/04/12 07:27:03;;;;;;;;;;;;;;;7.94;68.80;97547.28;4976625;28;19922;-79
2023/04/12 07:29:28;;;;;;;;;;;;;;;7.63;70.72;97545.59;4988501;28;19930;-78
2023/04/12 07:31:53;;;;;;;;;;;;;;;7.82;69.73;97538.78;4987479;28;20008;-79
2023/04/12 07:34:18;;;;;;;;;;;;;;;7.87;69.74;97525.47;4990493;28;19929;-79
2023/04/12 07:36:43;;;;;;;;;;;;;;;7.81;70.36;97514.06;4985835;28;19932;-79
2023/04/12 07:39:11;;;;;;;;;;;;;;;7.80;69.97;97514.34;4991234;28;19972;-79
2023/04/12 07:41:36;;;;;;;;;;;;;;;8.07;68.68;97515.69;4970628;28;20420;-79
2023/04/12 07:44:02;;;;;;;;;;;;;;;7.81;70.89;97518.56;4984003;28;19957;-79
2023/04/12 07:46:27;;;;;;;;;;;;;;;7.95;70.09;97511.69;4986982;28;19932;-78
2023/04/12 07:48:53;;;;;;;;;;;;;;;8.28;68.13;97506.69;4966521;28;19972;-79
2023/04/12 07:51:18;;;;;;;;;;;;;;;8.00;69.66;97501.06;4984431;28;20349;-78
2023/04/12 07:53:47;;;;;;;;;;;;;;;8.00;70.00;97498.41;4992068;28;20258;-79
2023/04/12 07:56:13;;;;;;;;;;;;;;;8.06;69.06;97494.72;4994265;28;19961;-78
2023/04/12 07:58:38;;;;;;;;;;;;;;;7.98;69.34;97489.91;4993386;28;19941;-78
2023/04/12 08:01:03;;;;;;;;;;;;;;;8.19;69.88;97483.56;4986868;28;19922;-78
2023/04/12 08:03:28;;;;;;;;;;;;;;;8.06;70.49;97482.19;4973476;28;19925;-78
2023/04/12 08:05:54;;;;;;;;;;;;;;;8.23;69.83;97487.25;4977018;28;19965;-78
2023/04/12 08:08:20;;;;;;;;;;;;;;;8.34;69.12;97470.28;4993399;28;20293;-78
2023/04/12 08:10:46;;;;;;;;;;;;;;;8.33;69.91;97474.00;4985697;28;19922;-79
2023/04/12 08:13:11;;;;;;;;;;;;;;;8.40;68.87;97473.72;4977643;28;19930;-78
2023/04/12 08:15:36;;;;;;;;;;;;;;;8.34;69.53;97470.28;4983870;28;19933;-78
2023/04/12 08:18:02;;;;;;;;;;;;;;;8.30;70.19;97472.66;4991589;28;19928;-79
2023/04/12 08:20:27;;;;;;;;;;;;;;;8.32;70.08;97472.41;4998619;28;19918;-78
2023/04/12 08:22:53;;;;;;;;;;;;;;;8.19;70.84;97460.41;4985299;28;20292;-78
2023/04/12 08:25:19;;;;;;;;;;;;;;;7.98;72.33;97463.34;4988919;28;19926;-79
2023/04/12 08:27:45;;;;;;;;;;;;;;;7.91;73.62;97460.94;4991447;28;19918;-80
2023/04/12 08:30:12;;;;;;;;;;;;;;;8.15;70.95;97458.53;4989057;28;20361;-79
2023/04/12 08:32:37;;;;;;;;;;;;;;;8.12;70.46;97451.13;4970613;28;19968;-79
2023/04/12 08:35:06;;;;;;;;;;;;;;;7.98;71.80;97460.69;4983559;28;19960;-79
2023/04/12 08:37:32;;;;;;;;;;;;;;;7.87;73.18;97459.88;4985578;28;19934;-79
2023/04/12 08:40:05;;;;;;;;;;;;;;;7.80;73.42;97454.03;4994709;28;19918;-79
2023/04/12 08:42:33;;;;;;;;;;;;;;;7.92;72.69;97448.47;4989203;28;19925;-79
2023/04/12 08:44:58;;;;;;;;;;;;;;;7.58;74.38;97443.63;4985093;28;19918;-79
2023/04/12 08:47:23;;;;;;;;;;;;;;;7.57;75.00;97444.72;4985770;28;19933;-79
2023/04/12 08:49:49;;;;;;;;;;;;;;;7.65;74.94;97450.53;4981422;28;19922;-78
2023/04/12 08:52:15;;;;;;;;;;;;;;;7.30;77.00;97438.81;4984724;28;20065;-79
2023/04/12 08:54:40;;;;;;;;;;;;;;;7.70;75.02;97437.28;4987293;28;20376;-79
2023/04/12 08:57:07;;;;;;;;;;;;;;;7.71;73.57;97426.38;4982672;28;19922;-79
2023/04/12 08:59:40;;;;;;;;;;;;;;;7.71;74.84;97420.31;4992458;28;19922;-79
2023/04/12 09:02:05;;;;;;;;;;;;;;;7.64;75.93;97422.41;4984267;28;19924;-79
2023/04/12 09:04:30;;;;;;;;;;;;;;;7.69;74.93;97423.22;4972189;28;19925;-79
2023/04/12 09:06:56;;;;;;;;;;;;;;;7.42;79.27;97418.16;4965645;28;19922;-79
2023/04/12 09:09:40;;;;;;;;;;;;;;;7.68;75.42;97412.84;4985525;28;20052;-78
2023/04/12 09:12:06;;;;;;;;;;;;;;;7.75;76.75;97395.63;4967833;28;20282;-79
2023/04/12 09:14:31;;;;;;;;;;;;;;;7.40;80.57;97398.22;4987153;28;19942;-79
2023/04/12 09:16:56;;;;;;;;;;;;;;;7.54;76.67;97383.38;4992250;28;20369;-78
2023/04/12 09:19:32;;;;;;;;;;;;;;;7.62;78.54;97388.19;4990200;28;19940;-79
2023/04/12 09:21:57;;;;;;;;;;;;;;;7.83;75.90;97365.84;4983775;28;20301;-79
2023/04/12 09:24:23;;;;;;;;;;;;;;;7.79;76.63;97358.69;4982499;28;19918;-79
2023/04/12 09:27:09;;;;;;;;;;;;;;;7.70;77.93;97353.13;4968645;28;19933;-79
2023/04/12 09:29:35;;;;;;;;;;;;;;;7.47;79.55;97357.09;4985613;28;19926;-79
2023/04/12 09:32:01;;;;;;;;;;;;;;;7.80;76.19;97357.63;4988635;28;19925;-80
2023/04/12 09:34:27;;;;;;;;;;;;;;;7.45;79.92;97343.28;4995637;28;19933;-79
2023/04/12 09:36:52;;;;;;;;;;;;;;;7.63;81.02;97339.31;4988730;28;19914;-79
2023/04/12 09:39:18;;;;;;;;;;;;;;;7.71;79.02;97337.97;5008603;28;20080;-79
2023/04/12 09:41:43;;;;;;;;;;;;;;;7.58;79.28;97329.47;4974742;28;19944;-79
2023/04/12 09:44:09;;;;;;;;;;;;;;;7.85;76.70;97323.09;4993374;28;20289;-79
2023/04/12 09:46:35;;;;;;;;;;;;;;;8.01;76.12;97320.16;5002174;28;20380;-79
2023/04/12 09:49:04;;;;;;;;;;;;;;;7.96;76.71;97324.66;4998325;28;19914;-79
2023/04/12 09:51:31;;;;;;;;;;;;;;;7.75;80.88;97313.28;4991681;28;19929;-79
2023/04/12 09:53:58;;;;;;;;;;;;;;;7.87;77.52;97308.47;4992429;28;19929;-80
2023/04/12 09:56:24;;;;;;;;;;;;;;;8.01;76.90;97311.38;4976809;28;19922;-79
2023/04/12 09:58:51;;;;;;;;;;;;;;;7.87;79.51;97307.66;4997753;28;19925;-79
2023/04/12 10:01:17;;;;;;;;;;;;;;;7.93;78.85;97298.66;4983999;28;19973;-79
2023/04/12 10:03:42;;;;;;;;;;;;;;;7.96;78.48;97298.09;4990174;28;19948;-79
2023/04/12 10:06:07;;;;;;;;;;;;;;;7.99;77.41;97297.56;4971041;28;20010;-79
2023/04/12 10:08:35;;;;;;;;;;;;;;;8.04;77.22;97286.91;4999828;28;19917;-79
2023/04/12 10:11:01;;;;;;;;;;;;;;;7.87;78.85;97295.19;4986880;28;20509;-79
2023/04/12 10:13:28;;;;;;;;;;;;;;;7.81;80.21;97300.78;4986796;28;20016;-79
2023/04/12 10:15:54;;;;;;;;;;;;;;;7.92;78.60;97267.81;4985947;28;19961;-79
2023/04/12 10:18:19;;;;;;;;;;;;;;;7.90;78.17;97267.31;4990993;28;19960;-80
2023/04/12 10:20:45;;;;;;;;;;;;;;;7.87;79.02;97260.66;4991475;28;19928;-79
2023/04/12 10:23:11;;;;;;;;;;;;;;;8.04;77.20;97255.03;4990226;28;19957;-79
2023/04/12 10:25:38;;;;;;;;;;;;;;;7.75;81.28;97249.56;4989361;28;19961;-79
2023/04/12 10:28:21;;;;;;;;;;;;;;;7.75;81.64;97257.53;4995166;28;19921;-79
2023/04/12 10:30:48;;;;;;;;;;;;;;;7.80;80.40;97257.47;4990353;28;19917;-79
2023/04/12 10:33:15;;;;;;;;;;;;;;;7.83;79.18;97242.88;4998860;28;20379;-79
2023/04/12 10:35:46;;;;;;;;;;;;;;;8.08;78.20;97250.78;4990339;28;19928;-79
2023/04/12 10:38:11;;;;;;;;;;;;;;;8.13;77.92;97245.44;4978203;28;19948;-80
2023/04/12 10:40:37;;;;;;;;;;;;;;;7.89;81.74;97241.78;4972272;28;20531;-79
2023/04/12 10:43:18;;;;;;;;;;;;;;;7.83;81.33;97253.50;4983592;28;20023;-79
2023/04/12 10:45:44;;;;;;;;;;;;;;;7.92;80.48;97236.75;4987853;28;20309;-79
2023/04/12 10:48:28;;;;;;;;;;;;;;;8.09;79.58;97236.41;4991515;28;19922;-79
2023/04/12 10:51:13;;;;;;;;;;;;;;;7.91;80.62;97234.34;4998445;28;19917;-79
2023/04/12 10:53:39;;;;;;;;;;;;;;;7.77;80.94;97226.19;4994547;28;19918;-79
2023/04/12 10:56:23;;;;;;;;;;;;;;;7.92;80.07;97222.66;4991043;28;20029;-80
2023/04/12 10:58:48;;;;;;;;;;;;;;;7.88;81.51;97224.28;4990901;28;19924;-79
2023/04/12 11:01:17;;;;;;;;;;;;;;;8.02;79.96;97222.63;4982753;28;19918;-79
2023/04/12 11:04:02;;;;;;;;;;;;;;;7.87;82.86;97222.69;4986096;28;19960;-80
2023/04/12 11:06:47;;;;;;;;;;;;;;;8.04;82.08;97221.28;4990059;28;20576;-79
2023/04/12 11:09:16;;;;;;;;;;;;;;;8.17;80.89;97218.03;4990750;28;19964;-79
2023/04/12 11:11:41;;;;;;;;;;;;;;;8.32;79.03;97222.53;4991513;28;19929;-80
2023/04/12 11:14:08;;;;;;;;;;;;;;;7.89;83.32;97231.16;4988440;28;19926;-79
2023/04/12 11:16:33;;;;;;;;;;;;;;;8.02;82.78;97223.41;4991767;28;19917;-80
2023/04/12 11:18:59;;;;;;;;;;;;;;;8.33;78.09;97218.81;4981542;28;19930;-79
2023/04/12 11:21:24;;;;;;;;;;;;;;;8.22;80.35;97212.72;4992884;28;19949;-80
2023/04/12 11:23:51;;;;;;;;;;;;;;;7.98;82.28;97210.94;4977373;28;20016;-79
2023/04/12 11:26:20;;;;;;;;;;;;;;;7.93;81.92;97205.69;4999881;28;19922;-79
2023/04/12 11:28:47;;;;;;;;;;;;;;;8.09;80.81;97201.88;4971621;28;19980;-79
2023/04/12 11:31:13;;;;;;;;;;;;;;;8.12;81.00;97191.50;4991317;28;19929;-79
2023/04/12 11:33:39;;;;;;;;;;;;;;;7.92;82.40;97204.88;4990920;28;20378;-79
2023/04/12 11:36:11;;;;;;;;;;;;;;;8.21;80.00;97208.44;4989936;28;19960;-80
2023/04/12 11:38:37;;;;;;;;;;;;;;;7.93;81.33;97203.78;4989054;28;19941;-79
2023/04/12 11:41:03;;;;;;;;;;;;;;;8.04;80.49;97196.56;4996757;28;19925;-80
2023/04/12 11:43:29;;;;;;;;;;;;;;;8.07;80.56;97191.53;4994518;28;20328;-79
2023/04/12 11:45:55;;;;;;;;;;;;;;;8.09;81.05;97193.91;4991712;28;19918;-79
2023/04/12 11:48:20;;;;;;;;;;;;;;;8.18;78.89;97189.63;4981321;28;19981;-79
2023/04/12 11:50:45;;;;;;;;;;;;;;;8.12;80.31;97186.19;4984537;28;19969;-79
2023/04/12 11:53:11;;;;;;;;;;;;;;;8.06;81.37;97187.25;4984815;28;20305;-80
2023/04/12 11:55:36;;;;;;;;;;;;;;;8.04;81.30;97188.59;4986699;28;20412;-79
2023/04/12 11:58:02;;;;;;;;;;;;;;;7.87;83.94;97177.53;4982288;28;19930;-79
2023/04/12 12:00:30;;;;;;;;;;;;;;;7.83;84.69;97176.47;4987045;28;19944;-79
2023/04/12 12:02:55;;;;;;;;;;;;;;;8.11;80.89;97176.63;4982538;28;19925;-79
2023/04/12 12:05:21;;;;;;;;;;;;;;;8.32;79.19;97173.91;4985960;28;19928;-79
2023/04/12 12:07:46;;;;;;;;;;;;;;;8.12;81.69;97166.78;4986465;28;20005;-79
2023/04/12 12:10:11;;;;;;;;;;;;;;;8.20;79.26;97168.88;4978832;28;20076;-80
2023/04/12 12:12:37;;;;;;;;;;;;;;;7.95;83.76;97167.13;4981109;28;19925;-79
2023/04/12 12:15:02;;;;;;;;;;;;;;;8.08;81.49;97160.44;4983668;28;20020;-79
2023/04/12 12:17:27;;;;;;;;;;;;;;;8.17;80.95;97159.59;4968712;28;19928;-79
2023/04/12 12:19:55;;;;;;;;;;;;;;;8.11;82.14;97150.06;4979069;28;21832;-79
2023/04/12 12:22:21;;;;;;;;;;;;;;;7.95;83.60;97145.88;4976795;28;19922;-79
2023/04/12 12:24:51;;;;;;;;;;;;;;;8.24;79.61;97141.47;4983332;28;20001;-79
2023/04/12 12:27:17;;;;;;;;;;;;;;;8.24;82.12;97146.00;4982689;28;19917;-79
2023/04/12 12:29:42;;;;;;;;;;;;;;;8.34;80.05;97143.31;4984303;28;19925;-79
2023/04/12 12:32:12;;;;;;;;;;;;;;;8.00;85.79;97139.75;4966667;28;19931;-79
2023/04/12 12:34:37;;;;;;;;;;;;;;;8.19;82.89;97138.06;4983770;28;19933;-79
2023/04/12 12:37:06;;;;;;;;;;;;;;;8.28;81.56;97139.09;4966492;28;19941;-79
2023/04/12 12:39:31;;;;;;;;;;;;;;;8.43;79.86;97131.00;4983062;28;19924;-79
2023/04/12 12:41:57;;;;;;;;;;;;;;;8.34;80.49;97132.69;4989280;28;20621;-80
2023/04/12 12:44:22;;;;;;;;;;;;;;;8.37;81.18;97133.97;4970567;28;20402;-79
2023/04/12 12:46:48;;;;;;;;;;;;;;;8.59;79.65;97129.03;4983006;28;19921;-79
2023/04/12 12:49:13;;;;;;;;;;;;;;;8.40;82.53;97123.59;4981708;28;19976;-79
2023/04/12 12:51:38;;;;;;;;;;;;;;;8.49;81.79;97119.28;4977558;28;20016;-79
2023/04/12 12:54:03;;;;;;;;;;;;;;;8.48;81.81;97114.22;4988464;28;19933;-79